Adairville, Kentucky
Current Conditions -  °F | °C
As of 3:35 AM on Sunday 23 Nov 2014 (Local Time) from KM91 Reporting Station
Broken Clouds Broken Clouds  
Wind Chill: 54°   Ceiling: 4100
Heat Index: 54°   Visibility: 10mi
Dew Point: 39°   Wind: 9mph
Humidity: 58%   Direction: 150°SSE
Pressure: 29.94"   Gusts: NA
Location:  36.67°N, 86.85°W
Report Text: KM91 230935Z AUTO 15008KT 10SM SCT023 BKN041 12/04 A2994 RMK
Loading
Personal Weather Stations






























Interactive Weather Map New forecast layout! Learn more

10-Day Weather Forecast

Advertisements
Track Severe Weather on mobile